createdAt,value
2018-06-08T00:00:24.428Z,15.67
2018-06-08T00:02:52.996Z,15.43
2018-06-08T00:05:21.565Z,14.23
2018-06-08T00:07:50.125Z,14.17
2018-06-08T00:10:18.688Z,14.70
2018-06-08T00:12:47.236Z,14.37
2018-06-08T00:15:15.812Z,14.43
2018-06-08T00:17:44.350Z,14.87
2018-06-08T00:20:12.920Z,13.87
2018-06-08T00:22:41.453Z,15.30
2018-06-08T00:25:10.017Z,13.63
2018-06-08T00:27:38.572Z,13.17
2018-06-08T00:30:07.162Z,14.17
2018-06-08T00:32:35.780Z,13.30
2018-06-08T00:35:04.380Z,13.03
2018-06-08T00:37:33.063Z,13.07
2018-06-08T00:40:01.650Z,13.33
2018-06-08T00:42:30.248Z,13.03
2018-06-08T00:44:58.879Z,13.57
2018-06-08T00:47:27.471Z,14.00
2018-06-08T00:49:56.084Z,13.97
2018-06-08T00:52:24.673Z,17.53
2018-06-08T00:54:53.295Z,15.67
2018-06-08T00:57:21.890Z,16.60
2018-06-08T00:59:50.513Z,17.10
2018-06-08T01:02:18.756Z,17.97
2018-06-08T01:04:47.410Z,17.60
2018-06-08T01:07:15.979Z,16.63
2018-06-08T01:09:44.588Z,14.87
2018-06-08T01:12:13.219Z,15.10
2018-06-08T01:14:41.824Z,14.30
2018-06-08T01:17:10.384Z,15.63
2018-06-08T01:19:39.075Z,15.83
2018-06-08T01:22:07.366Z,17.07
2018-06-08T01:24:35.988Z,16.40
2018-06-08T01:27:04.624Z,16.13
2018-06-08T01:29:33.267Z,16.20
2018-06-08T01:32:01.905Z,16.20
2018-06-08T01:34:30.520Z,16.30
2018-06-08T01:36:59.073Z,16.60
2018-06-08T01:39:27.680Z,17.37
2018-06-08T01:41:56.241Z,16.23
2018-06-08T01:44:24.856Z,19.60
2018-06-08T01:46:53.395Z,20.57
2018-06-08T01:49:21.991Z,21.00
2018-06-08T01:51:50.565Z,21.37
2018-06-08T01:54:19.161Z,19.57
2018-06-08T01:56:47.735Z,20.83
2018-06-08T01:59:16.313Z,20.93
2018-06-08T02:01:44.867Z,27.67
2018-06-08T02:04:13.420Z,28.00
2018-06-08T02:06:41.988Z,31.60
2018-06-08T02:09:10.666Z,29.60
2018-06-08T02:11:39.279Z,32.00
2018-06-08T02:14:07.873Z,31.53
2018-06-08T02:16:36.490Z,29.43
2018-06-08T02:19:05.107Z,26.90
2018-06-08T02:21:33.748Z,28.30
2018-06-08T02:24:02.307Z,30.80
2018-06-08T02:26:30.917Z,29.10
2018-06-08T02:28:59.459Z,30.33
2018-06-08T02:31:28.077Z,31.63
2018-06-08T02:33:56.661Z,31.40
2018-06-08T02:36:25.277Z,31.03
2018-06-08T02:38:53.837Z,31.00
2018-06-08T02:41:22.425Z,28.80
2018-06-08T02:43:51.021Z,28.83
2018-06-08T02:46:19.577Z,29.47
2018-06-08T02:48:48.124Z,30.10
2018-06-08T02:51:16.695Z,31.40
2018-06-08T02:53:45.245Z,29.90
2018-06-08T02:56:13.828Z,28.33
2018-06-08T02:58:42.389Z,27.50
2018-06-08T03:01:10.992Z,28.50
2018-06-08T03:03:39.548Z,29.07
2018-06-08T03:06:08.145Z,28.77
2018-06-08T03:08:36.758Z,31.30
2018-06-08T03:11:05.436Z,28.53
2018-06-08T03:13:34.004Z,31.47
2018-06-08T03:16:02.607Z,31.10
2018-06-08T03:18:31.173Z,31.43
2018-06-08T03:20:59.770Z,28.00
2018-06-08T03:23:28.360Z,25.80
2018-06-08T03:25:56.952Z,25.27
2018-06-08T03:28:25.527Z,25.27
2018-06-08T03:30:54.188Z,25.00
2018-06-08T03:33:22.789Z,25.97
2018-06-08T03:35:51.388Z,25.87
2018-06-08T03:38:19.961Z,27.10
2018-06-08T03:40:48.556Z,28.10
2018-06-08T03:43:17.150Z,25.67
2018-06-08T03:45:45.771Z,25.57
2018-06-08T03:48:14.397Z,27.10
2018-06-08T03:50:43.029Z,22.63
2018-06-08T03:53:11.608Z,20.80
2018-06-08T03:55:40.288Z,23.37
2018-06-08T03:58:09.181Z,21.77
2018-06-08T04:00:37.795Z,21.30
2018-06-08T04:03:06.937Z,21.77
2018-06-08T04:05:35.552Z,25.80
2018-06-08T04:08:04.172Z,24.80
2018-06-08T04:10:32.821Z,23.37
2018-06-08T04:13:01.441Z,29.47
2018-06-08T04:15:30.063Z,31.40
2018-06-08T04:17:58.672Z,36.10
2018-06-08T04:20:27.318Z,33.47
2018-06-08T04:22:55.912Z,37.37
2018-06-08T04:25:24.602Z,41.70
2018-06-08T04:27:53.180Z,32.37
2018-06-08T04:30:21.815Z,40.00
2018-06-08T04:32:50.428Z,44.87
2018-06-08T04:35:19.021Z,39.83
2018-06-08T04:37:47.722Z,30.40
2018-06-08T04:40:16.304Z,36.23
2018-06-08T04:42:45.005Z,22.90
2018-06-08T04:45:13.549Z,21.47
2018-06-08T04:47:42.317Z,25.60
2018-06-08T04:50:10.892Z,29.93
2018-06-08T04:52:39.600Z,32.13
2018-06-08T04:55:08.161Z,32.70
2018-06-08T04:57:36.756Z,30.70
2018-06-08T05:00:05.509Z,30.73
2018-06-08T05:02:34.097Z,30.10
2018-06-08T05:05:02.655Z,32.17
2018-06-08T05:07:31.232Z,23.53
2018-06-08T05:09:59.810Z,19.30
2018-06-08T05:12:28.445Z,23.07
2018-06-08T05:14:57.009Z,20.17
2018-06-08T05:17:25.644Z,26.17
2018-06-08T05:19:54.222Z,24.63
2018-06-08T05:22:22.820Z,26.10
2018-06-08T05:24:51.428Z,25.87
2018-06-08T05:27:20.127Z,28.27
2018-06-08T05:29:48.759Z,28.50
2018-06-08T05:32:17.416Z,29.40
2018-06-08T05:34:46.010Z,28.97
2018-06-08T05:37:14.679Z,29.53
2018-06-08T05:39:43.226Z,30.50
2018-06-08T05:42:11.808Z,33.70
2018-06-08T05:44:40.406Z,32.30
2018-06-08T05:47:09.026Z,36.97
2018-06-08T05:49:37.596Z,38.60
2018-06-08T05:52:05.878Z,39.23
2018-06-08T05:54:34.476Z,28.90
2018-06-08T05:57:03.108Z,30.53
2018-06-08T05:59:31.705Z,29.80
2018-06-08T06:02:00.361Z,33.80
2018-06-08T06:04:28.929Z,32.40
2018-06-08T06:06:57.510Z,32.37
2018-06-08T06:09:26.122Z,27.93
2018-06-08T06:11:54.729Z,26.60
2018-06-08T06:14:23.384Z,28.63
2018-06-08T06:16:52.005Z,25.63
2018-06-08T06:19:20.616Z,28.97
2018-06-08T06:21:49.252Z,27.73
2018-06-08T06:24:17.884Z,27.83
2018-06-08T06:26:46.547Z,32.10
2018-06-08T06:29:15.133Z,30.63
2018-06-08T06:31:43.758Z,27.80
2018-06-08T06:54:16.441Z,26.93
2018-06-08T06:56:45.100Z,26.20
2018-06-08T06:59:13.684Z,25.63
2018-06-08T07:01:42.302Z,29.60
2018-06-08T07:04:10.906Z,28.70
2018-06-08T07:06:39.541Z,28.37
2018-06-08T07:09:09.243Z,27.03
2018-06-08T07:11:38.110Z,26.13
2018-06-08T07:14:06.687Z,24.00
2018-06-08T07:16:35.299Z,23.70
2018-06-08T07:19:03.910Z,25.07
2018-06-08T07:21:32.514Z,23.07
2018-06-08T07:24:01.141Z,22.70
2018-06-08T07:26:30.201Z,20.90
2018-06-08T07:28:58.788Z,20.03
2018-06-08T07:31:27.447Z,19.60
2018-06-08T07:33:56.037Z,20.57
2018-06-08T07:36:24.629Z,20.50
2018-06-08T07:38:53.216Z,21.40
2018-06-08T07:41:21.830Z,20.30
2018-06-08T07:43:50.436Z,21.10
2018-06-08T07:46:19.053Z,19.10
2018-06-08T07:48:47.646Z,20.77
2018-06-08T07:51:16.269Z,23.30
2018-06-08T07:53:44.921Z,20.20
2018-06-08T07:56:13.681Z,19.90
2018-06-08T07:58:42.269Z,20.63
2018-06-08T08:01:10.981Z,20.80
2018-06-08T08:03:39.582Z,20.87
2018-06-08T08:06:08.233Z,20.73
2018-06-08T08:08:36.833Z,20.00
2018-06-08T08:11:05.618Z,19.30
2018-06-08T08:13:34.224Z,18.73
2018-06-08T08:16:02.857Z,18.90
2018-06-08T08:18:31.451Z,19.47
2018-06-08T08:21:00.053Z,20.57
2018-06-08T08:23:28.652Z,19.60
2018-06-08T08:25:57.228Z,19.33
2018-06-08T08:28:25.805Z,16.47
2018-06-08T08:30:54.420Z,15.93
2018-06-08T08:33:23.001Z,16.60
2018-06-08T08:35:51.564Z,18.23
2018-06-08T08:38:20.152Z,18.47
2018-06-08T08:40:48.716Z,17.27
2018-06-08T08:43:17.289Z,17.13
2018-06-08T08:45:45.961Z,17.00
2018-06-08T08:48:14.566Z,17.63
2018-06-08T08:50:43.223Z,18.60
2018-06-08T08:53:11.865Z,17.23
2018-06-08T08:55:40.441Z,16.83
2018-06-08T08:58:09.026Z,15.73
2018-06-08T09:00:37.632Z,15.50
2018-06-08T09:03:06.368Z,16.00
2018-06-08T09:05:35.014Z,15.37
2018-06-08T09:08:03.648Z,14.90
2018-06-08T09:10:32.216Z,14.93
2018-06-08T09:13:00.805Z,13.37
2018-06-08T09:15:29.372Z,15.60
2018-06-08T09:17:57.960Z,16.33
2018-06-08T09:20:26.581Z,14.13
2018-06-08T09:22:55.176Z,13.50
2018-06-08T09:25:23.761Z,14.27
2018-06-08T09:27:52.384Z,16.40
2018-06-08T09:30:20.952Z,15.77
2018-06-08T09:32:49.574Z,13.30
2018-06-08T09:35:18.189Z,13.50
2018-06-08T09:37:46.768Z,13.60
2018-06-08T09:40:15.303Z,16.30
2018-06-08T09:42:43.993Z,15.27
2018-06-08T09:45:12.639Z,15.83
2018-06-08T09:47:40.999Z,13.50
2018-06-08T09:50:10.039Z,13.50
2018-06-08T09:52:38.581Z,14.03
2018-06-08T09:55:07.134Z,12.70
2018-06-08T09:57:35.714Z,12.77
2018-06-08T10:00:04.361Z,13.60
2018-06-08T10:02:32.949Z,15.50
2018-06-08T10:05:01.589Z,13.60
2018-06-08T10:07:30.180Z,14.00
2018-06-08T10:09:58.772Z,13.77
2018-06-08T10:12:27.348Z,12.20
2018-06-08T10:14:56.035Z,11.83
2018-06-08T10:17:24.621Z,13.10
2018-06-08T10:19:53.211Z,11.03
2018-06-08T10:22:21.798Z,11.60
2018-06-08T10:24:50.387Z,12.50
2018-06-08T10:27:18.947Z,12.37
2018-06-08T10:29:47.564Z,11.20
2018-06-08T10:32:16.125Z,9.67
2018-06-08T10:34:44.685Z,11.40
2018-06-08T10:37:13.224Z,12.27
2018-06-08T10:39:41.832Z,11.47
2018-06-08T10:42:10.424Z,11.27
2018-06-08T10:44:39.052Z,11.70
2018-06-08T10:47:07.609Z,11.67
2018-06-08T10:49:36.176Z,10.40
2018-06-08T10:52:04.749Z,10.50
2018-06-08T10:54:33.373Z,10.47
2018-06-08T10:57:01.921Z,11.90
2018-06-08T10:59:30.476Z,12.00
2018-06-08T11:01:59.032Z,10.40
2018-06-08T11:04:27.600Z,12.67
2018-06-08T11:06:56.166Z,11.20
2018-06-08T11:09:24.760Z,11.37
2018-06-08T11:11:53.316Z,11.40
2018-06-08T11:14:21.914Z,9.30
2018-06-08T11:16:50.455Z,11.00
2018-06-08T11:19:19.069Z,9.97
2018-06-08T11:21:47.641Z,10.23
2018-06-08T11:24:16.225Z,10.30
2018-06-08T11:26:44.788Z,8.80
2018-06-08T11:29:13.408Z,10.47
2018-06-08T11:31:42.024Z,10.53
2018-06-08T11:34:10.596Z,10.00
2018-06-08T11:36:39.159Z,10.10
2018-06-08T11:39:08.449Z,10.63
2018-06-08T11:41:36.997Z,9.73
2018-06-08T11:44:05.556Z,11.23
2018-06-08T11:46:34.100Z,9.93
2018-06-08T11:49:02.688Z,10.33
2018-06-08T11:51:31.236Z,9.60
2018-06-08T11:53:59.809Z,9.83
2018-06-08T11:56:28.334Z,9.80
2018-06-08T11:58:56.915Z,10.20
2018-06-08T12:01:25.470Z,9.90
2018-06-08T12:03:53.691Z,9.73
2018-06-08T12:06:22.229Z,10.00
2018-06-08T12:08:50.817Z,9.37
2018-06-08T12:11:19.363Z,10.73
2018-06-08T12:13:47.931Z,9.97
2018-06-08T12:16:16.562Z,9.80
2018-06-08T12:18:46.002Z,9.70
2018-06-08T12:21:14.553Z,9.50
2018-06-08T12:23:43.148Z,10.80
2018-06-08T12:26:11.358Z,10.53
2018-06-08T12:28:39.938Z,9.80
2018-06-08T12:31:08.541Z,10.07
2018-06-08T12:33:37.137Z,10.87
2018-06-08T12:36:06.129Z,11.07
2018-06-08T12:38:34.713Z,11.20
2018-06-08T12:41:03.295Z,9.50
2018-06-08T12:43:31.900Z,9.73
2018-06-08T12:46:00.518Z,10.20
2018-06-08T12:48:29.082Z,11.03
2018-06-08T12:50:57.338Z,10.37
2018-06-08T12:53:25.926Z,10.60
2018-06-08T12:55:54.516Z,10.17
2018-06-08T12:58:23.078Z,10.70
2018-06-08T13:00:51.713Z,11.80
2018-06-08T13:03:20.325Z,10.03
2018-06-08T13:05:48.968Z,10.70
2018-06-08T13:08:17.549Z,9.93
2018-06-08T13:10:46.157Z,10.60
2018-06-08T13:13:14.761Z,10.90
2018-06-08T13:15:43.360Z,11.00
2018-06-08T13:18:11.966Z,11.40
2018-06-08T13:20:40.606Z,11.67
2018-06-08T13:23:09.206Z,13.00
2018-06-08T13:25:37.854Z,14.07
2018-06-08T13:28:06.555Z,13.40
2018-06-08T13:30:35.199Z,14.90
2018-06-08T13:33:03.477Z,15.40
2018-06-08T13:35:32.073Z,13.77
2018-06-08T13:38:00.608Z,15.90
2018-06-08T13:40:29.292Z,14.57
2018-06-08T13:42:57.844Z,18.47
2018-06-08T13:45:26.472Z,20.20
2018-06-08T13:47:55.052Z,18.93
2018-06-08T13:50:23.701Z,20.43
2018-06-08T13:52:52.244Z,20.23
2018-06-08T13:55:20.887Z,15.53
2018-06-08T13:57:49.456Z,18.30
2018-06-08T14:00:18.008Z,16.70
2018-06-08T14:02:46.561Z,15.53
2018-06-08T14:05:15.124Z,18.80
2018-06-08T14:07:43.681Z,16.67
2018-06-08T14:10:12.248Z,17.27
2018-06-08T14:12:40.791Z,17.47
2018-06-08T14:15:09.374Z,15.90
2018-06-08T14:17:37.931Z,17.23
2018-06-08T14:20:06.569Z,15.20
2018-06-08T14:22:35.250Z,15.53
2018-06-08T14:25:03.844Z,16.80
2018-06-08T14:27:32.431Z,12.77
2018-06-08T14:30:00.980Z,15.40
2018-06-08T14:32:29.560Z,15.27
2018-06-08T14:34:58.148Z,12.77
2018-06-08T14:37:26.744Z,13.87
2018-06-08T14:39:55.324Z,12.90
2018-06-08T14:42:23.911Z,12.07
2018-06-08T14:44:52.760Z,14.97
2018-06-08T14:47:21.340Z,10.60
2018-06-08T14:49:49.949Z,11.10
2018-06-08T14:52:18.527Z,12.70
2018-06-08T14:54:47.169Z,10.03
2018-06-08T14:57:15.794Z,11.67
2018-06-08T14:59:44.464Z,11.60
2018-06-08T15:02:13.194Z,11.27
2018-06-08T15:04:41.890Z,13.23
2018-06-08T15:07:10.461Z,10.63
2018-06-08T15:09:39.060Z,13.17
2018-06-08T15:12:07.688Z,9.77
2018-06-08T15:14:36.289Z,9.30
2018-06-08T15:17:04.961Z,9.87
2018-06-08T15:19:33.604Z,9.83
2018-06-08T15:22:02.259Z,9.17
2018-06-08T15:24:30.835Z,10.00
2018-06-08T15:26:59.414Z,9.67
2018-06-08T15:29:28.168Z,10.47
2018-06-08T15:31:56.764Z,11.40
2018-06-08T15:34:25.297Z,10.43
2018-06-08T15:36:53.868Z,9.80
2018-06-08T15:39:22.420Z,10.00
2018-06-08T15:41:50.996Z,9.90
2018-06-08T15:44:19.537Z,10.27
2018-06-08T15:46:48.105Z,11.10
2018-06-08T15:49:16.693Z,10.70
2018-06-08T15:51:45.271Z,10.50
2018-06-08T15:54:13.872Z,9.63
2018-06-08T15:56:42.465Z,10.63
2018-06-08T15:59:11.049Z,10.83
2018-06-08T16:01:39.668Z,11.37
2018-06-08T16:04:08.245Z,11.47
2018-06-08T16:06:36.840Z,12.07
2018-06-08T16:09:07.280Z,10.73
2018-06-08T16:11:35.884Z,11.70
2018-06-08T16:14:04.517Z,11.60
2018-06-08T16:16:33.128Z,12.33
2018-06-08T16:19:01.680Z,11.53
2018-06-08T16:21:30.293Z,12.20
2018-06-08T16:23:58.880Z,11.30
2018-06-08T16:26:27.465Z,11.30
2018-06-08T16:28:56.057Z,11.60
2018-06-08T16:31:24.712Z,11.93
2018-06-08T16:33:53.072Z,10.60
2018-06-08T16:36:21.793Z,11.57
2018-06-08T16:38:50.460Z,11.17
2018-06-08T16:41:19.171Z,11.23
2018-06-08T16:43:47.867Z,10.43
2018-06-08T16:46:16.504Z,11.00
2018-06-08T16:48:45.169Z,11.07
2018-06-08T16:51:13.861Z,10.90
2018-06-08T16:53:42.568Z,10.23
2018-06-08T16:56:11.278Z,10.97
2018-06-08T16:58:39.949Z,12.67
2018-06-08T17:01:08.664Z,10.50
2018-06-08T17:03:37.324Z,10.47
2018-06-08T17:06:06.390Z,11.30
2018-06-08T17:08:35.030Z,12.93
2018-06-08T17:11:03.671Z,11.93
2018-06-08T17:13:32.300Z,12.23
2018-06-08T17:16:01.032Z,12.20
2018-06-08T17:18:29.694Z,11.80
2018-06-08T17:20:58.420Z,11.90
2018-06-08T17:23:27.138Z,12.80
2018-06-08T17:25:55.908Z,12.87
2018-06-08T17:28:24.590Z,12.63
2018-06-08T17:30:53.300Z,12.80
2018-06-08T17:33:22.152Z,12.87
2018-06-08T17:35:50.940Z,12.67
2018-06-08T17:38:19.661Z,11.70
2018-06-08T17:40:48.479Z,11.67
2018-06-08T17:43:17.252Z,12.80
2018-06-08T17:45:45.957Z,11.63
2018-06-08T17:48:14.608Z,11.70
2018-06-08T17:50:43.262Z,12.37
2018-06-08T17:53:11.931Z,12.20
2018-06-08T17:55:40.573Z,12.37
2018-06-08T17:58:09.210Z,11.37
2018-06-08T18:00:37.894Z,12.47
2018-06-08T18:03:06.544Z,12.03
2018-06-08T18:05:35.176Z,10.60
2018-06-08T18:08:03.862Z,11.80
2018-06-08T18:10:32.514Z,11.43
2018-06-08T18:13:01.161Z,11.23
2018-06-08T18:15:29.392Z,12.57
2018-06-08T18:17:58.012Z,13.60
2018-06-08T18:20:26.588Z,12.00
2018-06-08T18:22:55.173Z,13.10
2018-06-08T18:25:23.863Z,14.13
2018-06-08T18:27:52.473Z,12.20
2018-06-08T18:30:21.045Z,11.80
2018-06-08T18:32:49.672Z,12.80
2018-06-08T18:35:18.276Z,12.47
2018-06-08T18:37:46.920Z,13.33
2018-06-08T18:40:15.534Z,13.10
2018-06-08T18:42:44.120Z,12.87
2018-06-08T18:45:12.721Z,12.73
2018-06-08T18:47:41.323Z,12.63
2018-06-08T18:50:09.940Z,12.77
2018-06-08T18:52:38.532Z,12.90
2018-06-08T18:55:07.176Z,14.77
2018-06-08T18:57:35.781Z,12.30
2018-06-08T19:00:04.735Z,14.90
2018-06-08T19:02:33.328Z,13.83
2018-06-08T19:05:01.915Z,14.77
2018-06-08T19:07:30.541Z,14.33
2018-06-08T19:09:59.114Z,15.10
2018-06-08T19:12:27.722Z,14.73
2018-06-08T19:14:56.314Z,15.90
2018-06-08T19:17:24.969Z,15.87
2018-06-08T19:19:53.551Z,17.20
2018-06-08T19:22:22.542Z,17.50
2018-06-08T19:24:51.197Z,15.60
2018-06-08T19:27:19.818Z,15.90
2018-06-08T19:29:48.399Z,16.07
2018-06-08T19:32:17.036Z,16.20
2018-06-08T19:34:45.596Z,15.73
2018-06-08T19:37:14.275Z,16.70
2018-06-08T19:39:42.914Z,17.30
2018-06-08T19:42:11.512Z,16.13
2018-06-08T19:44:40.101Z,18.03
2018-06-08T19:47:08.704Z,17.23
2018-06-08T19:49:37.277Z,16.57
2018-06-08T19:52:05.887Z,17.87
2018-06-08T19:54:34.572Z,19.27
2018-06-08T19:57:03.196Z,21.40
2018-06-08T19:59:31.788Z,20.47
2018-06-08T20:02:00.398Z,20.83
2018-06-08T20:04:28.999Z,22.07
2018-06-08T20:06:57.626Z,20.57
2018-06-08T20:09:26.229Z,22.37
2018-06-08T20:11:55.317Z,22.37
2018-06-08T20:14:23.985Z,22.57
2018-06-08T20:16:52.550Z,24.23
2018-06-08T20:19:21.138Z,22.33
2018-06-08T20:21:56.401Z,24.27
2018-06-08T20:24:25.015Z,22.20
2018-06-08T20:26:53.593Z,22.80
2018-06-08T20:29:22.192Z,24.23
2018-06-08T20:31:50.782Z,24.50
2018-06-08T20:34:19.356Z,24.10
2018-06-08T20:36:47.584Z,24.37
2018-06-08T20:39:16.150Z,24.47
2018-06-08T20:41:44.704Z,23.60
2018-06-08T20:44:13.297Z,24.77
2018-06-08T20:46:41.969Z,23.33
2018-06-08T20:49:10.580Z,24.80
2018-06-08T20:51:39.202Z,23.03
2018-06-08T20:54:07.796Z,24.43
2018-06-08T20:56:36.339Z,24.27
2018-06-08T20:59:04.909Z,25.70
2018-06-08T21:01:33.509Z,26.20
2018-06-08T21:04:02.152Z,24.57
2018-06-08T21:06:30.344Z,26.17
2018-06-08T21:08:59.932Z,26.53
2018-06-08T21:11:29.543Z,29.03
2018-06-08T21:14:00.358Z,29.13
2018-06-08T21:16:29.426Z,29.13
2018-06-08T21:18:58.739Z,28.27
2018-06-08T21:21:28.425Z,28.83
2018-06-08T21:23:57.832Z,28.17
2018-06-08T21:26:27.205Z,29.20
2018-06-08T21:28:55.816Z,29.43
2018-06-08T21:31:25.460Z,25.97
2018-06-08T21:33:54.657Z,25.53
2018-06-08T21:36:24.213Z,26.93
2018-06-08T21:38:53.512Z,24.03
2018-06-08T21:41:22.371Z,27.43
2018-06-08T21:43:51.929Z,26.10
2018-06-08T21:46:21.469Z,26.00
2018-06-08T21:48:50.474Z,26.83
2018-06-08T21:51:19.046Z,27.40
2018-06-08T21:53:47.615Z,27.07
2018-06-08T21:56:16.169Z,27.40
2018-06-08T21:58:44.708Z,28.10
2018-06-08T22:01:13.285Z,26.87
2018-06-08T22:03:41.888Z,28.17
2018-06-08T22:06:10.418Z,30.30
2018-06-08T22:08:39.040Z,29.97
2018-06-08T22:11:07.664Z,29.20
2018-06-08T22:13:36.333Z,29.50
2018-06-08T22:16:04.912Z,30.57
2018-06-08T22:18:33.488Z,29.50
2018-06-08T22:21:02.061Z,31.60
2018-06-08T22:23:30.626Z,29.50
2018-06-08T22:26:00.072Z,29.50
2018-06-08T22:28:29.547Z,30.23
2018-06-08T22:30:59.407Z,29.70
2018-06-08T22:33:29.066Z,28.20
2018-06-08T22:35:58.232Z,31.00
2018-06-08T22:38:27.981Z,32.43
2018-06-08T22:40:57.230Z,31.60
2018-06-08T22:43:25.864Z,32.73
2018-06-08T22:45:55.363Z,33.17
2018-06-08T22:48:25.488Z,32.47
2018-06-08T22:50:54.448Z,31.00
2018-06-08T22:53:23.705Z,34.03
2018-06-08T22:55:53.257Z,31.93
2018-06-08T22:58:22.779Z,34.77
2018-06-08T23:00:51.502Z,31.17
2018-06-08T23:03:20.073Z,35.67
2018-06-08T23:05:49.240Z,33.07
2018-06-08T23:08:18.464Z,33.80
2018-06-08T23:10:47.080Z,36.00
2018-06-08T23:13:16.284Z,36.67
2018-06-08T23:15:44.939Z,33.40
2018-06-08T23:18:14.231Z,32.47
2018-06-08T23:20:43.857Z,35.03
2018-06-08T23:23:12.701Z,34.90
2018-06-08T23:25:42.134Z,33.10
2018-06-08T23:28:11.231Z,34.03
2018-06-08T23:30:39.841Z,36.77
2018-06-08T23:33:08.575Z,35.50
2018-06-08T23:35:38.249Z,37.23
2018-06-08T23:38:06.849Z,37.30
2018-06-08T23:40:35.877Z,34.37
2018-06-08T23:43:05.127Z,35.27
2018-06-08T23:45:34.401Z,35.10
2018-06-08T23:48:02.980Z,36.37
2018-06-08T23:50:32.499Z,36.43
2018-06-08T23:53:01.120Z,37.10
2018-06-08T23:55:29.776Z,36.10
2018-06-08T23:57:58.456Z,34.50
